METAR stanice u blizini

 

LYNI - Nis, Yugoslavia
Distance from station: JZ 40km
Ažurirano: 29/01/2022 01:00
Pretežno oblačno
Pretežno oblačno
 Pravac vetra varies
Vetar: varies 2 km/h
Temperatura: 2°C
Tačka rose: 1°C
Vlažnost: 93%
Pritisak: 1024 hPa
Oblaci: Pretežno oblačno
Vidljivost: 10 km
Cloud details: Pretežno oblačno 1006 m
2022/01/29 00:00 LYNI 290000Z VRB01KT 9999 BKN033 02/01 Q1024 NOSIG
LYKV - Kraljevo, Yugoslavia
Distance from station: ZSZ 136km
Ažurirano: 29/01/2022 01:00
Slaba kiša, Pretežno oblačno
Slaba kiša, Pretežno oblačno
 Pravac vetra ZSZ
Vetar: ZSZ 17 km/h
Temperatura: 3°C
Osećaj hladnoće: -1°C
Tačka rose: 1°C
Vlažnost: 87%
Pritisak: 1025 hPa
Pregled: Slaba kiša
Oblaci: Pretežno oblačno
Vidljivost: 10 km
Cloud details: Delimično oblačno 518 m
Pretežno oblačno 914 m
2022/01/29 00:00 LYKV 290000Z 30009KT 280V340 9999 -RA SCT017 BKN030 03/01 Q1025 NOSIG
LBSF - Sofia (observato, Bulgaria
Distance from station: JI 138km
Ažurirano: 29/01/2022 01:30
Oblačno
Oblačno
 Pravac vetra ZSZ
Vetar: ZSZ 15 km/h
Temperatura: 1°C
Osećaj hladnoće: -3°C
Tačka rose: -5°C
Vlažnost: 65%
Pritisak: 1021 hPa
Oblaci: Oblačno
Vidljivost: 10 km
Cloud details: Oblačno 2073 m
2022/01/29 00:30 LBSF 290030Z 29008KT 260V320 9999 OVC068 01/M05 Q1021 NOSIG
 
BKPR - Prishtina, Yugoslavia
Distance from station: JZ 147km
Ažurirano: 29/01/2022 01:30
Pretežno oblačno
Pretežno oblačno
 Pravac vetra calm
Vetar: Tišina
Temperatura: 0°C
Tačka rose: -2°C
Vlažnost: 87%
Pritisak: 1023 hPa
Oblaci: Pretežno oblačno
Vidljivost: 10 km
Cloud details: Pretežno oblačno 1524 m
2022/01/29 00:30 BKPR 290030Z 00000KT 9999 BKN050 M00/M02 Q1023 NOSIG
LRCV - Craiova, Romania
Distance from station: SI 154km
Ažurirano: 29/01/2022 01:00
Vedro
Vedro
 Pravac vetra Z
Vetar: Z 17 km/h
Temperatura: 0°C
Osećaj hladnoće: -4°C
Tačka rose: -3°C
Vlažnost: 80%
Pritisak: 1019 hPa
Pregled: Vedro
Vidljivost: greater than 10 km
2022/01/29 00:00 LRCV 290000Z 26009KT CAVOK M00/M03 Q1019
LWSK - Skopje/Petrovac, Macedonia
Distance from station: JJZ 185km
Ažurirano: 29/01/2022 01:30
Delimično oblačno
Delimično oblačno
 Pravac vetra calm
Vetar: Tišina
Temperatura: 0°C
Tačka rose: -3°C
Vlažnost: 80%
Pritisak: 1024 hPa
Oblaci: Delimično oblačno
Vidljivost: 10 km
Cloud details: Delimično oblačno 2530 m
2022/01/29 00:30 LWSK 290030Z 00000KT 9999 SCT083 M00/M03 Q1024 NOSIG
 
LYVR - Vrsac, Yugoslavia
Distance from station: SSZ 189km
Ažurirano: 29/01/2022 01:00
Oblačno
Oblačno
 Pravac vetra varies
Vetar: varies 2 km/h
Temperatura: 2°C
Tačka rose: 1°C
Vlažnost: 93%
Pritisak: 1024 hPa
Oblaci: Oblačno
Vidljivost: 10 km
Cloud details: Oblačno 884 m
2022/01/29 00:00 LYVR 290000Z AUTO VRB01KT 9999 OVC029/// 02/01 Q1024
LYUZ - Uzice-Ponikve, Yugoslavia
Distance from station: Z 207km
Ažurirano: 04/11/2021 00:30
NOT Current

 Pravac vetra varies
Vetar: varies 9 km/h
Temperatura: 14°C
Tačka rose: 7°C
Vlažnost: 63%
Pritisak: 1010 hPa
Vidljivost: 10 km
2021/11/03 23:30 LYUZ 032330Z AUTO VRB05KT 9999 ////// 14/07 Q1010
LYBE - Belgrade/Surcin, Yugoslavia
Distance from station: SZ 209km
Ažurirano: 29/01/2022 01:00
Pretežno oblačno
Pretežno oblačno
 Pravac vetra ZSZ
Vetar: ZSZ 19 km/h
Temperatura: 3°C
Osećaj hladnoće: -2°C
Tačka rose: -1°C
Vlažnost: 75%
Pritisak: 1026 hPa
Oblaci: Pretežno oblačno
Vidljivost: 10 km
Cloud details: Pretežno oblačno 1067 m
2022/01/29 00:00 LYBE 290000Z 29010KT 9999 BKN035 03/M01 Q1026 NOSIG
 
LYBT - Batajnica, Yugoslavia
Distance from station: SZ 219km
Ažurirano: 29/01/2022 01:00
Pretežno oblačno
Pretežno oblačno
 Pravac vetra Z
Vetar: Z 24 km/h
Temperatura: 4°C
Osećaj hladnoće: -1°C
Tačka rose: 0°C
Vlažnost: 75%
Pritisak: 1025 hPa
Oblaci: Pretežno oblačno
Vidljivost: 10 km
Cloud details: Pretežno oblačno 1006 m
2022/01/29 00:00 LYBT 290000Z 28013KT 9999 BKN033 04/M00 Q1025 NOSIG
LRTR - Timisoara/Giarma, Romania
Distance from station: SSZ 260km
Ažurirano: 29/01/2022 01:00
Delimično oblačno
Delimično oblačno
 Pravac vetra SZ
Vetar: SZ 19 km/h
Temperatura: 1°C
Osećaj hladnoće: -4°C
Tačka rose: 0°C
Vlažnost: 93%
Pritisak: 1023 hPa
Oblaci: Delimično oblačno
Vidljivost: 10 km
Cloud details: Delimično oblačno 1158 m
2022/01/29 00:00 LRTR 290000Z 31010KT 9999 SCT038 01/00 Q1023
LBPD - Plovdiv, Bulgaria
Distance from station: JI 263km
Ažurirano: 29/01/2022 01:30
Vedro
Vedro
 Pravac vetra Z
Vetar: Z 33 km/h
Temperatura: 5°C
Osećaj hladnoće: 0°C
Tačka rose: -6°C
Vlažnost: 45%
Pritisak: 1021 hPa
Oblaci: Vedro
Vidljivost: 10 km
2022/01/29 00:30 LBPD 290030Z AUTO 28018KT 9999 NCD 05/M06 Q1021
 
LYPG - Podgorica(Titogr, Yugoslavia
Distance from station: ZJZ 278km
Ažurirano: 28/01/2022 23:00
NOT Current
Vedro
Vedro
 Pravac vetra S
Vetar: S 17 km/h
Temperatura: 7°C
Osećaj hladnoće: 4°C
Tačka rose: -7°C
Vlažnost: 37%
Pritisak: 1023 hPa
Pregled: Vedro
Vidljivost: greater than 10 km
2022/01/28 22:00 LYPG 282200Z 01009KT 330V040 CAVOK 07/M07 Q1023 NOSIG
LBGO - Gorna Orechovist, Bulgaria
Distance from station: I 285km
Ažurirano: 29/01/2022 01:30
Vedro
Vedro
 Pravac vetra Z
Vetar: Z 15 km/h
Temperatura: 3°C
Osećaj hladnoće: -1°C
Tačka rose: -3°C
Vlažnost: 65%
Pritisak: 1021 hPa
Oblaci: Vedro
Vidljivost: 10 km
2022/01/29 00:30 LBGO 290030Z AUTO 28008KT 9999 NCD 03/M03 Q1021
LRSB - Sibiu/Turnisor, Romania
Distance from station: SSI 286km
Ažurirano: 29/01/2022 01:00
Pretežno oblačno
Pretežno oblačno
 Pravac vetra SZ
Vetar: SZ 11 km/h
Temperatura: 2°C
Osećaj hladnoće: -1°C
Tačka rose: -3°C
Vlažnost: 70%
Pritisak: 1019 hPa
Oblaci: Pretežno oblačno
Vidljivost: 10 km
Cloud details: Few Clouds 975 m
Pretežno oblačno 1219 m
2022/01/29 00:00 LRSB 290000Z 31006KT 9999 FEW032 BKN040 02/M03 Q1019
 
LWOH - Ohrid, Macedonia
Distance from station: JJZ 292km
Ažurirano: 28/01/2022 21:00
NOT Current
Oblačno
Oblačno
 Pravac vetra S
Vetar: S 13 km/h
Temperatura: 2°C
Osećaj hladnoće: -1°C
Tačka rose: -2°C
Vlažnost: 75%
Pritisak: 1021 hPa
Oblaci: Oblačno
Vidljivost: 10 km
Cloud details: Oblačno 1067 m
2022/01/28 20:00 LWOH 282000Z 35007KT 9999 OVC035 02/M02 Q1021
LQTZ - Tuzla, Yugoslavia
Distance from station: ZSZ 298km
Ažurirano: 29/01/2022 01:00
Mist, Pretežno oblačno
Mist, Pretežno oblačno
 Pravac vetra varies
Vetar: varies 4 km/h
Temperatura: 0°C
Tačka rose: 0°C
Vlažnost: 100%
Pritisak: 1027 hPa
Pregled: Mist
Oblaci: Pretežno oblačno
Vidljivost: 3 km
Cloud details: Pretežno oblačno 762 m
2022/01/29 00:00 LQTZ 290000Z VRB02KT 3000 BR BKN025 00/00 Q1027
LRAR - Arad, Romania
Distance from station: SSZ 301km
Ažurirano: 29/01/2022 01:00
Slaba kiša, Sneg, Pretežno oblačno
Slaba kiša, Sneg, Pretežno oblačno
 Pravac vetra SSZ
Vetar: SSZ 19 km/h
Temperatura: 2°C
Osećaj hladnoće: -2°C
Tačka rose: 0°C
Vlažnost: 87%
Pritisak: 1023 hPa
Pregled: Slaba kiša, Sneg
Oblaci: Pretežno oblačno
Vidljivost: 10 km
Cloud details: Few Clouds 366 m
Pretežno oblačno 1067 m
2022/01/29 00:00 LRAR 290000Z 34010KT 9999 -RASN FEW012 BKN035 02/00 Q1023
 
LYTV - Tivat, Yugoslavia
Distance from station: ZJZ 315km
Ažurirano: 28/01/2022 17:30
NOT Current
Pretežno oblačno
Pretežno oblačno
 Pravac vetra S
Vetar: S 19 km/h, Maks.: 37 km/h
Temperatura: 10°C
Osećaj hladnoće: 7°C
Tačka rose: 0°C
Vlažnost: 50%
Pritisak: 1022 hPa
Oblaci: Pretežno oblačno
Vidljivost: 10 km
Cloud details: Few Clouds 701 m
Pretežno oblačno 2530 m
2022/01/28 16:30 LYTV 281630Z 01010G20KT 9999 FEW023 BKN083 10/M00 Q1022 NOSIG
LATI - Tirana, Albania
Distance from station: JZ 316km
Ažurirano: 29/01/2022 01:20
Pretežno oblačno
Pretežno oblačno
 Pravac vetra varies
Vetar: varies 6 km/h
Temperatura: 3°C
Tačka rose: 1°C
Vlažnost: 87%
Pritisak: 1021 hPa
Oblaci: Pretežno oblačno
Vidljivost: 6 km
Cloud details: Pretežno oblačno 4267 m
2022/01/29 00:20 LATI 290020Z VRB03KT 6000 BKN140 03/01 Q1021 NOSIG
LQBK - Banja Luka, Yugoslavia
Distance from station: SZ 426km
Ažurirano: 29/01/2022 01:00
Vedro
Vedro
 Pravac vetra SZ
Vetar: SZ 11 km/h
Temperatura: 4°C
Osećaj hladnoće: 1°C
Tačka rose: -4°C
Vlažnost: 56%
Pritisak: 1029 hPa
Pregled: Vedro
Vidljivost: greater than 10 km
2022/01/29 00:00 LQBK 290000Z 32006KT CAVOK 04/M04 Q1029 NOSIG
 
LDOS - Osijek, Croatia
Distance from station: SSZ 360km
Ažurirano: 28/01/2022 22:00
NOT Current
Vedro
Vedro
 Pravac vetra SZ
Vetar: SZ 28 km/h
Temperatura: 5°C
Osećaj hladnoće: 1°C
Tačka rose: -2°C
Vlažnost: 61%
Pritisak: 1026 hPa
Pregled: Vedro
Vidljivost: greater than 10 km
2022/01/28 21:00 LDOS 282100Z 31015KT CAVOK 05/M02 Q1026
LDDU - Dubrovnik-Cilipi, Croatia
Distance from station: JZ 352km
Ažurirano: 29/01/2022 01:30
Vedro
Vedro
 Pravac vetra varies
Vetar: varies 20 km/h, Maks.: 52 km/h
Temperatura: 6°C
Osećaj hladnoće: 2°C
Tačka rose: -6°C
Vlažnost: 42%
Pritisak: 1023 hPa
Pregled: Vedro
Vidljivost: greater than 10 km
2022/01/29 00:30 LDDU 290030Z VRB11G28KT CAVOK 06/M06 Q1023
LQMO - Mostar Airport, Bosnia-Herzegovina
Distance from station: Z 359km
Ažurirano: 29/01/2022 01:00
Few Clouds
Few Clouds
 Pravac vetra S
Vetar: S 28 km/h, Maks.: 48 km/h
Temperatura: 7°C
Osećaj hladnoće: 3°C
Tačka rose: -6°C
Vlažnost: 39%
Pritisak: 1024 hPa
Oblaci: Few Clouds
Vidljivost: 10 km
Cloud details: Few Clouds 2286 m
2022/01/29 00:00 LQMO 290000Z 36015G26KT 320V050 9999 FEW075 07/M06 Q1024
 
LQSA - Sarajevo/Butmir, Yugoslavia
Distance from station: Z 311km
Ažurirano: 29/01/2022 01:00
Sneg, Mist, Oblačno
Sneg, Mist, Oblačno
 Pravac vetra varies
Vetar: varies 4 km/h
Temperatura: -1°C
Tačka rose: -1°C
Vlažnost: 100%
Pritisak: 1026 hPa
Pregled: Sneg, Mist
Oblaci: Oblačno
Vidljivost: 2 km
Cloud details: Few Clouds 457 m
Pretežno oblačno 610 m
Oblačno 1067 m
2022/01/29 00:00 LQSA 290000Z VRB02KT 1500 R11/1400D SN BR FEW015 BKN020 OVC035 M01/M01 Q1026
LDSP - Split/Kastel Sta, Croatia
Distance from station: Z 468km
Ažurirano: 29/01/2022 01:30
Vedro
Vedro
 Pravac vetra S
Vetar: S 22 km/h
Temperatura: 7°C
Osećaj hladnoće: 4°C
Tačka rose: -6°C
Vlažnost: 39%
Pritisak: 1027 hPa
Pregled: Vedro
Vidljivost: greater than 10 km
2022/01/29 00:30 LDSP 290030Z AUTO 01012KT CAVOK 07/M06 Q1027
LDZD - Zadar/Zemunik, Croatia
Distance from station: ZSZ 567km
Ažurirano: 29/01/2022 01:30
Vedro
Vedro
 Pravac vetra SSI
Vetar: SSI 15 km/h
Temperatura: 6°C
Osećaj hladnoće: 3°C
Tačka rose: -8°C
Vlažnost: 36%
Pritisak: 1028 hPa
Pregled: Vedro
Vidljivost: greater than 10 km
2022/01/29 00:30 LDZD 290030Z 02008KT 340V050 CAVOK 06/M08 Q1028
 
LDZA - Zagreb/Pleso, Croatia
Distance from station: SZ 555km
Ažurirano: 29/01/2022 01:30
Vedro
Vedro
 Pravac vetra varies
Vetar: varies 4 km/h
Temperatura: 3°C
Tačka rose: -6°C
Vlažnost: 52%
Pritisak: 1029 hPa
Pregled: Vedro
Vidljivost: greater than 10 km
2022/01/29 00:30 LDZA 290030Z VRB02KT CAVOK 03/M06 Q1029 NOSIG
LJCE - Cerklje, Slovenia
Distance from station: SZ 680km
Ažurirano: 29/01/2022 01:00
Vedro
Vedro
 Pravac vetra varies
Vetar: varies 4 km/h
Temperatura: -3°C
Tačka rose: -6°C
Vlažnost: 80%
Pritisak: 1030 hPa
Oblaci: Vedro
Vidljivost: 10 km
2022/01/29 00:00 LJCE 290000Z AUTO VRB02KT 9999 NCD M03/M06 Q1030
LJMB - Maribor, Slovenia
Distance from station: SZ 616km
Ažurirano: 29/01/2022 01:00
Vedro
Vedro
 Pravac vetra S
Vetar: S 9 km/h
Temperatura: 1°C
Osećaj hladnoće: -2°C
Tačka rose: -7°C
Vlažnost: 56%
Pritisak: 1029 hPa
Oblaci: Vedro
Vidljivost: 10 km
2022/01/29 00:00 LJMB 290000Z AUTO 01005KT 9999 NCD 01/M07 Q1029
 
LJLJ - Ljubljana/Brnik, Slovenia
Distance from station: SZ 671km
Ažurirano: 29/01/2022 01:00
Pretežno oblačno
Pretežno oblačno
 Pravac vetra SZ
Vetar: SZ 15 km/h
Temperatura: 1°C
Osećaj hladnoće: -3°C
Tačka rose: -9°C
Vlažnost: 48%
Pritisak: 1028 hPa
Oblaci: Pretežno oblačno
Vidljivost: 10 km
Cloud details: Few Clouds 2134 m
Pretežno oblačno 7315 m
2022/01/29 00:00 LJLJ 290000Z 32008KT 9999 FEW070 BKN240 01/M09 Q1028 NOSIG
LDRI - Rijeka, Croatia
Distance from station: SZ 650km
Ažurirano: 29/01/2022 01:30
Vedro
Vedro
 Pravac vetra SI
Vetar: SI 9 km/h
Temperatura: 7°C
Osećaj hladnoće: 6°C
Tačka rose: -10°C
Vlažnost: 29%
Pritisak: 1029 hPa
Pregled: Vedro
Vidljivost: greater than 10 km
2022/01/29 00:30 LDRI 290030Z 05005KT CAVOK 07/M10 Q1029
LDPL - Pula, Croatia
Distance from station: ZSZ 686km
Ažurirano: 29/01/2022 01:30
Vedro
Vedro
 Pravac vetra SI
Vetar: SI 17 km/h
Temperatura: 5°C
Osećaj hladnoće: 2°C
Tačka rose: -9°C
Vlažnost: 36%
Pritisak: 1029 hPa
Pregled: Vedro
Vidljivost: greater than 10 km
2022/01/29 00:30 LDPL 290030Z 05009KT CAVOK 05/M09 Q1029
 
LJPZ - Portorož, Slovenia
Distance from station: ZSZ 720km
Ažurirano: 29/01/2022 01:00
Delimično oblačno
Delimično oblačno
 Pravac vetra IJI
Vetar: IJI 11 km/h
Temperatura: 0°C
Osećaj hladnoće: -4°C
Tačka rose: -4°C
Vlažnost: 75%
Pritisak: 1029 hPa
Oblaci: Delimično oblačno
Vidljivost: 10 km
2022/01/29 00:00 LJPZ 290000Z AUTO 11006KT 9999 NSC 00/M04 Q1029